createdAt,value
2018-07-27T00:01:20.082Z,101105.53
2018-07-27T00:03:48.469Z,101102.89
2018-07-27T00:06:16.896Z,101098.00
2018-07-27T00:08:45.654Z,101096.06
2018-07-27T00:11:14.733Z,101097.75
2018-07-27T00:13:42.888Z,101099.12
2018-07-27T00:16:11.789Z,101096.23
2018-07-27T00:18:41.921Z,101095.27
2018-07-27T00:21:10.798Z,101099.83
2018-07-27T00:23:39.269Z,101096.39
2018-07-27T00:26:07.704Z,101100.51
2018-07-27T00:28:36.172Z,101104.30
2018-07-27T00:31:04.285Z,101091.19
2018-07-27T00:33:32.968Z,101099.36
2018-07-27T00:36:01.633Z,101095.11
2018-07-27T00:38:30.085Z,101094.46
2018-07-27T00:40:58.634Z,101093.19
2018-07-27T00:43:26.740Z,101095.52
2018-07-27T00:45:54.854Z,101091.98
2018-07-27T00:48:23.340Z,101094.64
2018-07-27T00:50:51.637Z,101092.27
2018-07-27T00:53:20.088Z,101091.84
2018-07-27T00:55:48.521Z,101087.45
2018-07-27T00:58:16.972Z,101088.38
2018-07-27T01:00:45.912Z,101082.64
2018-07-27T01:03:14.369Z,101084.42
2018-07-27T01:05:42.614Z,101078.47
2018-07-27T01:08:11.052Z,101067.86
2018-07-27T01:10:39.334Z,101076.71
2018-07-27T01:13:07.659Z,101070.75
2018-07-27T01:15:35.762Z,101084.72
2018-07-27T01:18:03.934Z,101078.26
2018-07-27T01:20:32.349Z,101075.23
2018-07-27T01:23:01.041Z,101071.71
2018-07-27T01:25:29.828Z,101071.59
2018-07-27T01:27:58.233Z,101065.64
2018-07-27T01:30:26.809Z,101072.20
2018-07-27T01:32:55.495Z,101071.03
2018-07-27T01:35:23.912Z,101067.11
2018-07-27T01:37:52.691Z,101067.63
2018-07-27T01:40:21.308Z,101063.38
2018-07-27T01:42:49.725Z,101068.34
2018-07-27T01:45:18.196Z,101068.05
2018-07-27T01:47:46.817Z,101065.14
2018-07-27T01:50:15.257Z,101063.97
2018-07-27T01:52:43.976Z,101065.56
2018-07-27T01:55:12.709Z,101062.69
2018-07-27T01:57:42.293Z,101063.30
2018-07-27T02:00:11.102Z,101069.73
2018-07-27T02:02:40.081Z,101057.06
2018-07-27T02:05:08.784Z,101059.70
2018-07-27T02:07:37.229Z,101056.83
2018-07-27T02:10:05.404Z,101061.35
2018-07-27T02:12:33.556Z,101057.58
2018-07-27T02:15:01.999Z,101057.67
2018-07-27T02:17:30.899Z,101063.90
2018-07-27T02:19:59.330Z,101058.80
2018-07-27T02:22:27.880Z,101049.55
2018-07-27T02:24:56.352Z,101044.25
2018-07-27T02:27:24.996Z,101047.72
2018-07-27T02:29:53.400Z,101044.84
2018-07-27T02:32:21.898Z,101041.89
2018-07-27T02:34:50.823Z,101042.42
2018-07-27T02:37:19.281Z,101038.30
2018-07-27T02:39:48.128Z,101038.80
2018-07-27T02:42:16.501Z,101036.97
2018-07-27T02:44:45.271Z,101034.09
2018-07-27T02:47:13.493Z,101031.40
2018-07-27T02:49:42.329Z,101037.33
2018-07-27T02:52:10.847Z,101032.41
2018-07-27T02:54:39.420Z,101041.06
2018-07-27T02:57:07.992Z,101043.23
2018-07-27T02:59:36.469Z,101042.33
2018-07-27T03:02:04.612Z,101032.16
2018-07-27T03:04:32.913Z,101030.17
2018-07-27T03:07:01.888Z,101034.56
2018-07-27T03:09:30.357Z,101035.69
2018-07-27T03:11:58.777Z,101028.19
2018-07-27T03:14:27.477Z,101029.31
2018-07-27T03:16:56.226Z,101032.27
2018-07-27T03:19:24.782Z,101036.19
2018-07-27T03:21:53.421Z,101037.94
2018-07-27T03:24:21.806Z,101033.36
2018-07-27T03:26:50.386Z,101031.19
2018-07-27T03:29:18.852Z,101039.05
2018-07-27T03:31:47.276Z,101038.84
2018-07-27T03:34:15.773Z,101032.67
2018-07-27T03:36:44.229Z,101032.74
2018-07-27T03:39:12.621Z,101040.99
2018-07-27T03:41:42.708Z,101046.49
2018-07-27T03:44:11.177Z,101046.63
2018-07-27T03:46:39.937Z,101043.54
2018-07-27T03:49:08.413Z,101046.80
2018-07-27T03:51:37.141Z,101049.24
2018-07-27T03:54:05.837Z,101048.38
2018-07-27T03:56:34.279Z,101046.16
2018-07-27T03:59:12.300Z,101044.82
2018-07-27T04:01:42.425Z,101046.64
2018-07-27T04:04:10.725Z,101050.13
2018-07-27T04:06:39.205Z,101052.21
2018-07-27T04:09:08.559Z,101052.78
2018-07-27T04:11:37.161Z,101052.65
2018-07-27T04:14:05.674Z,101053.02
2018-07-27T04:16:33.820Z,101055.97
2018-07-27T04:19:02.727Z,101056.00
2018-07-27T04:21:31.289Z,101057.64
2018-07-27T04:24:00.071Z,101056.97
2018-07-27T04:26:28.510Z,101055.50
2018-07-27T04:28:57.285Z,101059.22
2018-07-27T04:31:25.778Z,101055.71
2018-07-27T04:33:54.696Z,101051.02
2018-07-27T04:36:23.543Z,101054.98
2018-07-27T04:38:52.017Z,101050.03
2018-07-27T04:41:20.781Z,101046.20
2018-07-27T04:43:49.219Z,101043.06
2018-07-27T04:46:17.524Z,101042.41
2018-07-27T04:48:45.977Z,101050.20
2018-07-27T04:51:14.386Z,101058.83
2018-07-27T04:53:43.166Z,101044.28
2018-07-27T04:56:11.797Z,101047.94
2018-07-27T04:58:40.368Z,101045.73
2018-07-27T05:01:08.837Z,101048.61
2018-07-27T05:03:36.968Z,101043.44
2018-07-27T05:06:05.455Z,101051.65
2018-07-27T05:08:38.404Z,101055.36
2018-07-27T05:11:07.028Z,101055.32
2018-07-27T05:13:35.163Z,101054.20
2018-07-27T05:16:03.624Z,101053.58
2018-07-27T05:18:32.092Z,101049.95
2018-07-27T05:21:00.816Z,101051.89
2018-07-27T05:23:29.309Z,101057.72
2018-07-27T05:25:57.780Z,101057.20
2018-07-27T05:28:26.189Z,101052.84
2018-07-27T05:30:54.316Z,101059.86
2018-07-27T05:33:22.820Z,101053.14
2018-07-27T05:35:51.593Z,101054.20
2018-07-27T05:38:19.995Z,101060.54
2018-07-27T05:40:48.585Z,101054.33
2018-07-27T05:43:17.505Z,101061.78
2018-07-27T05:45:46.581Z,101059.01
2018-07-27T05:48:15.065Z,101061.71
2018-07-27T05:50:43.260Z,101061.94
2018-07-27T05:53:11.728Z,101061.21
2018-07-27T05:55:40.065Z,101062.16
2018-07-27T05:58:08.424Z,101060.75
2018-07-27T06:00:36.565Z,101060.67
2018-07-27T06:03:05.220Z,101067.19
2018-07-27T06:05:33.713Z,101064.80
2018-07-27T06:08:01.941Z,101063.98
2018-07-27T06:10:30.284Z,101063.15
2018-07-27T06:12:58.717Z,101062.55
2018-07-27T06:15:27.336Z,101060.39
2018-07-27T06:17:55.529Z,101058.41
2018-07-27T06:20:24.048Z,101062.55
2018-07-27T06:22:52.569Z,101071.08
2018-07-27T06:25:21.588Z,101061.83
2018-07-27T06:27:50.269Z,101062.91
2018-07-27T06:30:18.770Z,101063.44
2018-07-27T06:32:47.630Z,101060.54
2018-07-27T06:35:16.580Z,101060.63
2018-07-27T06:37:44.992Z,101052.12
2018-07-27T06:40:13.448Z,101059.00
2018-07-27T06:42:42.509Z,101060.92
2018-07-27T06:45:10.614Z,101054.69
2018-07-27T06:47:39.489Z,101053.78
2018-07-27T06:50:07.652Z,101055.33
2018-07-27T06:52:36.522Z,101051.00
2018-07-27T06:55:05.090Z,101057.04
2018-07-27T06:57:33.616Z,101053.58
2018-07-27T07:00:01.752Z,101054.98
2018-07-27T07:02:30.446Z,101051.55
2018-07-27T07:04:58.915Z,101058.23
2018-07-27T07:07:27.892Z,101055.38
2018-07-27T07:09:56.661Z,101045.55
2018-07-27T07:12:24.797Z,101052.75
2018-07-27T07:14:53.580Z,101051.98
2018-07-27T07:17:22.042Z,101056.45
2018-07-27T07:19:50.400Z,101047.46
2018-07-27T07:22:18.857Z,101046.22
2018-07-27T07:24:47.585Z,101045.07
2018-07-27T07:27:15.697Z,101049.17
2018-07-27T07:29:44.443Z,101040.67
2018-07-27T07:32:12.781Z,101040.46
2018-07-27T07:34:42.613Z,101037.42
2018-07-27T07:37:11.572Z,101040.05
2018-07-27T07:39:39.694Z,101038.40
2018-07-27T07:42:08.619Z,101034.97
2018-07-27T07:44:37.120Z,101034.24
2018-07-27T07:47:05.261Z,101032.63
2018-07-27T07:49:33.705Z,101031.05
2018-07-27T07:52:02.381Z,101022.94
2018-07-27T07:54:31.293Z,101029.73
2018-07-27T07:56:59.934Z,101020.66
2018-07-27T07:59:28.641Z,101016.28
2018-07-27T08:01:57.361Z,101022.09
2018-07-27T08:04:26.115Z,101020.73
2018-07-27T08:06:55.005Z,101018.41
2018-07-27T08:09:23.440Z,101024.25
2018-07-27T08:11:51.841Z,101016.65
2018-07-27T08:14:20.317Z,101012.41
2018-07-27T08:16:48.916Z,101008.55
2018-07-27T08:19:17.537Z,101008.22
2018-07-27T08:21:46.325Z,100994.70
2018-07-27T08:24:14.817Z,100998.44
2018-07-27T08:26:47.533Z,101003.14
2018-07-27T08:29:16.892Z,101001.42
2018-07-27T08:31:46.011Z,100997.83
2018-07-27T08:34:15.307Z,100993.18
2018-07-27T08:36:43.797Z,100993.65
2018-07-27T08:39:13.708Z,100989.56
2018-07-27T08:41:43.525Z,100991.22
2018-07-27T08:44:12.808Z,100990.84
2018-07-27T08:46:41.305Z,100991.41
2018-07-27T08:49:09.673Z,100982.08
2018-07-27T08:51:38.073Z,100985.09
2018-07-27T08:54:06.227Z,100987.83
2018-07-27T08:56:34.993Z,100980.55
2018-07-27T08:59:03.417Z,100979.77
2018-07-27T09:01:31.776Z,100978.44
2018-07-27T09:04:00.532Z,100978.19
2018-07-27T09:06:28.796Z,100983.39
2018-07-27T09:08:57.117Z,100980.28
2018-07-27T09:11:25.575Z,100972.45
2018-07-27T09:13:54.904Z,100979.05
2018-07-27T09:16:23.861Z,100978.88
2018-07-27T09:18:52.461Z,100980.44
2018-07-27T09:21:20.953Z,100982.10
2018-07-27T09:23:49.416Z,100972.50
2018-07-27T09:26:18.030Z,100969.02
2018-07-27T09:28:46.494Z,100959.65
2018-07-27T09:31:15.168Z,100966.67
2018-07-27T09:33:44.516Z,100951.93
2018-07-27T09:36:13.041Z,100962.55
2018-07-27T09:38:42.797Z,100963.19
2018-07-27T09:41:11.507Z,100958.97
2018-07-27T09:43:39.961Z,100958.83
2018-07-27T09:46:09.129Z,100958.64
2018-07-27T09:48:37.560Z,100957.83
2018-07-27T09:51:06.023Z,100959.52
2018-07-27T09:53:34.345Z,100958.94
2018-07-27T09:56:03.292Z,100952.08
2018-07-27T09:58:31.534Z,100952.00
2018-07-27T10:01:05.824Z,100939.50
2018-07-27T10:03:34.276Z,100937.81
2018-07-27T10:06:02.977Z,100942.91
2018-07-27T10:08:31.121Z,100934.85
2018-07-27T10:10:59.498Z,100934.52
2018-07-27T10:13:28.172Z,100934.23
2018-07-27T10:15:56.631Z,100927.75
2018-07-27T10:18:25.255Z,100922.97
2018-07-27T10:20:53.929Z,100928.06
2018-07-27T10:23:22.049Z,100922.67
2018-07-27T10:25:50.176Z,100921.75
2018-07-27T10:28:18.652Z,100925.13
2018-07-27T10:30:47.124Z,100918.50
2018-07-27T10:33:15.573Z,100909.61
2018-07-27T10:35:44.309Z,100906.50
2018-07-27T10:38:12.749Z,100908.73
2018-07-27T10:40:41.218Z,100905.67
2018-07-27T10:43:09.685Z,100900.89
2018-07-27T10:45:37.996Z,100904.20
2018-07-27T10:48:06.977Z,100893.23
2018-07-27T10:50:35.430Z,100893.23
2018-07-27T10:53:03.876Z,100894.69
2018-07-27T10:55:32.586Z,100886.58
2018-07-27T10:58:01.029Z,100889.36
2018-07-27T11:00:29.461Z,100886.30
2018-07-27T11:02:58.198Z,100884.60
2018-07-27T11:05:26.843Z,100874.21
2018-07-27T11:07:55.224Z,100874.70
2018-07-27T11:10:23.810Z,100879.00
2018-07-27T11:12:52.209Z,100868.48
2018-07-27T11:15:20.670Z,100868.03
2018-07-27T11:17:49.672Z,100866.72
2018-07-27T11:20:18.579Z,100854.18
2018-07-27T11:22:47.269Z,100856.43
2018-07-27T11:25:15.643Z,100857.87
2018-07-27T11:27:44.157Z,100859.03
2018-07-27T11:30:12.642Z,100845.56
2018-07-27T11:32:41.332Z,100857.66
2018-07-27T11:35:09.441Z,100852.03
2018-07-27T11:37:37.897Z,100839.97
2018-07-27T11:40:06.670Z,100837.37
2018-07-27T11:42:34.915Z,100842.16
2018-07-27T11:45:03.776Z,100835.90
2018-07-27T11:47:32.490Z,100840.41
2018-07-27T11:50:00.945Z,100835.68
2018-07-27T11:52:29.509Z,100836.26
2018-07-27T11:54:58.345Z,100841.00
2018-07-27T11:57:26.694Z,100833.73
2018-07-27T11:59:55.149Z,100833.50
2018-07-27T12:02:23.644Z,100828.70
2018-07-27T12:04:52.384Z,100823.30
2018-07-27T12:07:20.873Z,100820.61
2018-07-27T12:09:49.600Z,100822.45
2018-07-27T12:12:17.962Z,100821.53
2018-07-27T12:14:46.833Z,100813.30
2018-07-27T12:17:15.565Z,100808.67
2018-07-27T12:19:44.009Z,100810.17
2018-07-27T12:22:12.285Z,100805.76
2018-07-27T12:24:40.733Z,100806.94
2018-07-27T12:27:09.572Z,100791.55
2018-07-27T12:29:38.497Z,100792.77
2018-07-27T12:32:06.629Z,100794.99
2018-07-27T12:34:34.745Z,100796.25
2018-07-27T12:37:03.794Z,100788.23
2018-07-27T12:39:32.745Z,100792.22
2018-07-27T12:42:01.769Z,100783.69
2018-07-27T12:44:30.686Z,100774.33
2018-07-27T12:46:58.869Z,100772.78
2018-07-27T12:49:27.038Z,100771.20
2018-07-27T12:51:55.477Z,100767.58
2018-07-27T12:54:23.948Z,100765.34
2018-07-27T12:56:52.375Z,100763.01
2018-07-27T12:59:20.513Z,100766.05
2018-07-27T13:01:49.712Z,100763.21
2018-07-27T13:04:17.841Z,100765.39
2018-07-27T13:06:46.288Z,100760.68
2018-07-27T13:09:14.402Z,100761.73
2018-07-27T13:11:43.949Z,100751.70
2018-07-27T13:14:12.667Z,100746.25
2018-07-27T13:16:41.273Z,100747.32
2018-07-27T13:19:12.125Z,100736.22
2018-07-27T13:21:40.648Z,100746.86
2018-07-27T13:24:08.938Z,100743.38
2018-07-27T13:26:37.369Z,100731.32
2018-07-27T13:29:06.023Z,100731.05
2018-07-27T13:31:43.353Z,100723.43
2018-07-27T13:35:03.590Z,100721.80
2018-07-27T13:37:33.290Z,100712.70
2018-07-27T13:40:03.473Z,100717.05
2018-07-27T13:42:32.907Z,100718.77
2018-07-27T13:45:01.019Z,100722.83
2018-07-27T13:47:30.105Z,100713.39
2018-07-27T13:49:58.968Z,100706.03
2018-07-27T13:52:27.422Z,100697.14
2018-07-27T13:54:55.775Z,100686.17
2018-07-27T13:57:24.417Z,100684.58
2018-07-27T13:59:53.056Z,100679.34
2018-07-27T14:02:23.492Z,100676.61
2018-07-27T14:04:53.649Z,100677.83
2018-07-27T14:07:22.001Z,100681.16
2018-07-27T14:09:50.700Z,100678.68
2018-07-27T14:12:19.047Z,100681.10
2018-07-27T14:14:47.648Z,100678.26
2018-07-27T14:17:16.206Z,100669.75
2018-07-27T14:19:44.949Z,100669.90
2018-07-27T14:22:13.081Z,100670.55
2018-07-27T14:24:41.229Z,100666.25
2018-07-27T14:27:10.064Z,100652.25
2018-07-27T14:29:38.881Z,100654.81
2018-07-27T14:32:07.050Z,100659.70
2018-07-27T14:34:35.176Z,100643.80
2018-07-27T14:37:03.623Z,100641.72
2018-07-27T14:39:32.522Z,100643.86
2018-07-27T14:42:00.705Z,100639.58
2018-07-27T14:44:29.187Z,100635.70
2018-07-27T14:46:57.883Z,100648.48
2018-07-27T14:49:26.460Z,100635.27
2018-07-27T14:51:54.893Z,100630.73
2018-07-27T14:54:23.375Z,100630.31
2018-07-27T14:56:51.994Z,100630.22
2018-07-27T14:59:20.469Z,100627.40
2018-07-27T15:01:49.204Z,100622.83
2018-07-27T15:04:17.321Z,100614.20
2018-07-27T15:06:46.303Z,100609.89
2018-07-27T15:09:15.392Z,100603.53
2018-07-27T15:11:45.009Z,100606.17
2018-07-27T15:14:13.404Z,100608.12
2018-07-27T15:16:42.044Z,100599.68
2018-07-27T15:19:10.204Z,100600.06
2018-07-27T15:21:38.911Z,100607.69
2018-07-27T15:24:07.072Z,100607.34
2018-07-27T15:26:35.213Z,100600.28
2018-07-27T15:29:04.064Z,100598.24
2018-07-27T15:31:32.320Z,100594.18
2018-07-27T15:34:00.458Z,100594.09
2018-07-27T15:36:29.108Z,100592.75
2018-07-27T15:38:58.056Z,100583.94
2018-07-27T15:41:26.748Z,100593.97
2018-07-27T15:43:55.332Z,100586.77
2018-07-27T15:46:23.801Z,100584.66
2018-07-27T15:48:52.229Z,100581.34
2018-07-27T15:51:20.679Z,100584.42
2018-07-27T15:53:49.309Z,100578.12
2018-07-27T15:56:18.025Z,100584.62
2018-07-27T15:58:46.548Z,100573.47
2018-07-27T16:01:14.860Z,100569.59
2018-07-27T16:03:44.151Z,100570.16
2018-07-27T16:06:12.585Z,100563.92
2018-07-27T16:08:41.027Z,100564.20
2018-07-27T16:11:09.921Z,100556.94
2018-07-27T16:13:38.772Z,100553.93
2018-07-27T16:16:08.679Z,100548.64
2018-07-27T16:18:36.841Z,100550.04
2018-07-27T16:21:05.301Z,100548.09
2018-07-27T16:23:33.765Z,100553.45
2018-07-27T16:26:02.510Z,100558.56
2018-07-27T16:28:30.874Z,100552.70
2018-07-27T16:30:59.465Z,100556.67
2018-07-27T16:33:28.121Z,100546.33
2018-07-27T16:35:56.857Z,100542.72
2018-07-27T16:38:25.358Z,100540.78
2018-07-27T16:40:53.485Z,100539.96
2018-07-27T16:43:21.847Z,100541.09
2018-07-27T16:45:50.504Z,100537.19
2018-07-27T16:48:18.826Z,100537.19
2018-07-27T16:50:47.584Z,100536.88
2018-07-27T16:53:15.928Z,100531.29
2018-07-27T16:55:45.067Z,100532.12
2018-07-27T16:58:13.498Z,100526.80
2018-07-27T17:00:42.058Z,100528.22
2018-07-27T17:03:10.665Z,100532.97
2018-07-27T17:05:39.563Z,100529.33
2018-07-27T17:08:08.405Z,100526.52
2018-07-27T17:10:36.875Z,100527.66
2018-07-27T17:13:05.106Z,100524.02
2018-07-27T17:15:33.889Z,100525.42
2018-07-27T17:18:02.631Z,100529.87
2018-07-27T17:20:31.246Z,100516.41
2018-07-27T17:22:59.735Z,100518.06
2018-07-27T17:25:28.827Z,100529.23
2018-07-27T17:27:57.157Z,100523.34
2018-07-27T17:30:25.285Z,100517.75
2018-07-27T17:32:53.756Z,100525.54
2018-07-27T17:35:22.090Z,100520.77
2018-07-27T17:37:50.573Z,100522.70
2018-07-27T17:40:18.715Z,100522.98
2018-07-27T17:42:47.708Z,100522.13
2018-07-27T17:45:16.025Z,100522.70
2018-07-27T17:47:44.372Z,100525.21
2018-07-27T17:50:12.849Z,100526.03
2018-07-27T17:52:41.264Z,100533.31
2018-07-27T17:55:09.757Z,100522.38
2018-07-27T17:57:38.544Z,100533.55
2018-07-27T18:00:07.649Z,100531.28
2018-07-27T18:02:36.476Z,100533.22
2018-07-27T18:05:04.621Z,100531.48
2018-07-27T18:07:33.444Z,100522.27
2018-07-27T18:10:01.685Z,100525.06
2018-07-27T18:12:30.368Z,100529.21
2018-07-27T18:14:59.119Z,100526.40
2018-07-27T18:17:27.383Z,100529.42
2018-07-27T18:19:55.489Z,100525.17
2018-07-27T18:22:24.188Z,100525.69
2018-07-27T18:24:52.330Z,100524.22
2018-07-27T18:27:20.820Z,100523.58
2018-07-27T18:29:49.554Z,100524.66
2018-07-27T18:32:18.053Z,100534.95
2018-07-27T18:34:46.460Z,100532.94
2018-07-27T18:37:14.601Z,100533.45
2018-07-27T18:39:42.780Z,100533.41
2018-07-27T18:42:11.392Z,100523.85
2018-07-27T18:44:39.747Z,100521.24
2018-07-27T18:47:08.541Z,100525.11
2018-07-27T18:49:36.652Z,100520.28
2018-07-27T18:52:05.018Z,100529.96
2018-07-27T18:54:33.149Z,100526.53
2018-07-27T18:57:01.558Z,100527.02
2018-07-27T18:59:30.213Z,100526.40
2018-07-27T19:01:58.373Z,100523.77
2018-07-27T19:04:27.036Z,100521.48
2018-07-27T19:06:56.212Z,100518.06
2018-07-27T19:09:24.829Z,100510.45
2018-07-27T19:11:53.216Z,100516.79
2018-07-27T19:14:21.668Z,100517.55
2018-07-27T19:16:50.093Z,100511.06
2018-07-27T19:19:18.551Z,100510.16
2018-07-27T19:21:46.998Z,100505.89
2018-07-27T19:24:15.269Z,100514.16
2018-07-27T19:26:44.796Z,100508.00
2018-07-27T19:29:13.326Z,100506.88
2018-07-27T19:31:41.778Z,100505.43
2018-07-27T19:34:10.200Z,100500.93
2018-07-27T19:36:38.701Z,100505.02
2018-07-27T19:39:09.116Z,100510.21
2018-07-27T19:41:37.777Z,100507.25
2018-07-27T19:44:06.258Z,100508.69
2018-07-27T19:46:34.589Z,100514.30
2018-07-27T19:49:03.299Z,100506.57
2018-07-27T19:51:33.508Z,100501.09
2018-07-27T19:54:01.845Z,100511.26
2018-07-27T19:56:30.709Z,100507.73
2018-07-27T19:58:59.097Z,100505.67
2018-07-27T20:01:27.636Z,100508.37
2018-07-27T20:03:56.072Z,100511.61
2018-07-27T20:06:24.749Z,100512.32
2018-07-27T20:08:53.232Z,100519.41
2018-07-27T20:11:21.904Z,100514.30
2018-07-27T20:13:50.344Z,100512.57
2018-07-27T20:16:18.827Z,100508.36
2018-07-27T20:18:47.500Z,100501.59
2018-07-27T20:21:16.160Z,100504.27
2018-07-27T20:23:45.448Z,100491.63
2018-07-27T20:26:14.002Z,100497.63
2018-07-27T20:28:42.824Z,100496.12
2018-07-27T20:31:11.573Z,100488.83
2018-07-27T20:33:39.705Z,100488.13
2018-07-27T20:36:08.158Z,100486.96
2018-07-27T20:38:36.404Z,100485.41
2018-07-27T20:41:04.732Z,100492.48
2018-07-27T20:43:33.027Z,100488.67
2018-07-27T20:46:01.823Z,100487.48
2018-07-27T20:48:30.826Z,100486.78
2018-07-27T20:50:59.790Z,100487.47
2018-07-27T20:53:28.433Z,100480.95
2018-07-27T20:55:57.293Z,100476.48
2018-07-27T20:58:25.449Z,100472.80
2018-07-27T21:00:54.212Z,100477.95
2018-07-27T21:03:22.961Z,100481.92
2018-07-27T21:05:51.712Z,100475.14
2018-07-27T21:08:20.217Z,100472.45
2018-07-27T21:10:48.832Z,100467.87
2018-07-27T21:13:17.536Z,100469.22
2018-07-27T21:15:45.926Z,100468.61
2018-07-27T21:18:14.409Z,100476.27
2018-07-27T21:20:42.756Z,100474.16
2018-07-27T21:23:11.222Z,100475.13
2018-07-27T21:25:39.794Z,100474.16
2018-07-27T21:28:07.933Z,100483.71
2018-07-27T21:30:36.577Z,100479.91
2018-07-27T21:33:05.026Z,100483.70
2018-07-27T21:35:33.140Z,100483.95
2018-07-27T21:38:01.801Z,100482.56
2018-07-27T21:40:29.909Z,100481.42
2018-07-27T21:42:58.376Z,100484.38
2018-07-27T21:45:26.668Z,100485.19
2018-07-27T21:47:55.453Z,100481.74
2018-07-27T21:50:23.914Z,100482.52
2018-07-27T21:52:52.391Z,100484.15
2018-07-27T21:55:20.533Z,100481.28
2018-07-27T21:57:49.138Z,100477.37
2018-07-27T22:00:17.681Z,100474.86
2018-07-27T22:02:45.888Z,100478.39
2018-07-27T22:05:14.805Z,100474.70
2018-07-27T22:07:43.252Z,100473.81
2018-07-27T22:10:11.569Z,100474.83
2018-07-27T22:12:40.015Z,100479.20
2018-07-27T22:15:14.714Z,100478.13
2018-07-27T22:17:42.841Z,100473.35
2018-07-27T22:20:11.288Z,100469.32
2018-07-27T22:22:39.596Z,100472.73
2018-07-27T22:25:07.705Z,100465.28
2018-07-27T22:27:36.177Z,100471.73
2018-07-27T22:30:06.652Z,100469.43
2018-07-27T22:32:35.338Z,100476.66
2018-07-27T22:35:03.581Z,100463.27
2018-07-27T22:37:32.293Z,100475.89
2018-07-27T22:40:00.853Z,100476.41
2018-07-27T22:42:29.332Z,100472.20
2018-07-27T22:44:57.727Z,100470.36
2018-07-27T22:47:26.421Z,100472.26
2018-07-27T22:49:54.666Z,100479.52
2018-07-27T22:52:23.132Z,100481.28
2018-07-27T22:54:52.097Z,100478.52
2018-07-27T22:57:20.241Z,100481.53
2018-07-27T22:59:48.974Z,100478.05
2018-07-27T23:02:17.429Z,100473.97
2018-07-27T23:04:46.161Z,100464.17
2018-07-27T23:07:14.612Z,100470.09
2018-07-27T23:09:42.989Z,100472.86
2018-07-27T23:12:11.948Z,100474.49
2018-07-27T23:14:40.267Z,100469.34
2018-07-27T23:17:09.004Z,100448.70
2018-07-27T23:19:37.132Z,100462.05
2018-07-27T23:22:05.276Z,100462.99
2018-07-27T23:24:34.024Z,100465.38
2018-07-27T23:27:02.377Z,100465.17
2018-07-27T23:29:30.766Z,100462.34
2018-07-27T23:31:59.108Z,100462.13
2018-07-27T23:34:27.794Z,100459.37
2018-07-27T23:36:56.514Z,100458.57
2018-07-27T23:39:25.074Z,100451.97
2018-07-27T23:41:53.516Z,100446.77
2018-07-27T23:44:22.148Z,100444.88
2018-07-27T23:46:50.597Z,100442.59
2018-07-27T23:49:19.416Z,100429.39
2018-07-27T23:51:48.149Z,100429.70
2018-07-27T23:54:16.299Z,100431.70
2018-07-27T23:56:45.552Z,100428.55
2018-07-27T23:59:14.341Z,100417.03
